createdAt,value
2022-12-11T00:02:37.523Z,0.78
2022-12-11T00:06:24.921Z,0.83
2022-12-11T00:10:07.938Z,0.80
2022-12-11T00:13:52.856Z,0.87
2022-12-11T00:17:15.316Z,0.73
2022-12-11T00:20:46.980Z,0.73
2022-12-11T00:24:09.866Z,0.69
2022-12-11T00:27:35.256Z,0.69
2022-12-11T00:30:55.713Z,0.71
2022-12-11T00:34:20.552Z,0.69
2022-12-11T00:37:31.466Z,0.71
2022-12-11T00:40:59.319Z,0.76
2022-12-11T00:44:24.622Z,0.69
2022-12-11T00:47:58.009Z,0.69
2022-12-11T00:51:20.562Z,0.66
2022-12-11T00:55:00.469Z,0.63
2022-12-11T00:58:45.132Z,0.60
2022-12-11T01:02:27.988Z,0.60
2022-12-11T01:05:40.959Z,0.59
2022-12-11T01:09:59.504Z,0.57
2022-12-11T01:13:22.530Z,0.50
2022-12-11T01:17:05.856Z,0.49
2022-12-11T01:20:28.998Z,0.46
2022-12-11T01:24:12.084Z,0.29
2022-12-11T01:27:18.713Z,0.23
2022-12-11T01:30:46.749Z,0.09
2022-12-11T01:34:08.455Z,0.13
2022-12-11T01:37:31.833Z,0.01
2022-12-11T01:41:14.701Z,0.00
2022-12-11T01:44:21.576Z,0.02
2022-12-11T01:47:44.529Z,-0.01
2022-12-11T01:51:07.617Z,-0.01
2022-12-11T01:54:51.416Z,0.02
2022-12-11T01:58:17.862Z,0.03
2022-12-11T02:01:45.211Z,-0.05
2022-12-11T02:04:54.816Z,-0.08
2022-12-11T02:08:34.308Z,-0.09
2022-12-11T02:12:29.300Z,-0.13
2022-12-11T02:16:24.052Z,-0.15
2022-12-11T02:20:21.759Z,-0.13
2022-12-11T02:24:10.065Z,-0.18
2022-12-11T02:27:56.683Z,-0.09
2022-12-11T02:31:26.733Z,-0.11
2022-12-11T02:35:17.281Z,-0.19
2022-12-11T02:39:02.712Z,-0.20
2022-12-11T02:43:10.436Z,-0.20
2022-12-11T02:46:54.111Z,-0.22
2022-12-11T02:50:50.433Z,-0.18
2022-12-11T02:54:38.094Z,-0.22
2022-12-11T02:58:59.558Z,-0.17
2022-12-11T03:02:51.826Z,-0.16
2022-12-11T03:06:42.485Z,-0.20
2022-12-11T03:10:25.233Z,-0.15
2022-12-11T03:14:09.038Z,-0.12
2022-12-11T03:17:59.038Z,-0.09
2022-12-11T03:22:16.178Z,-0.09
2022-12-11T03:26:05.110Z,-0.03
2022-12-11T03:30:15.351Z,0.02
2022-12-11T03:33:43.205Z,-0.01
2022-12-11T03:37:49.210Z,0.03
2022-12-11T03:41:35.660Z,0.02
2022-12-11T03:45:20.858Z,0.06
2022-12-11T03:48:36.169Z,0.03
2022-12-11T03:52:20.794Z,0.08
2022-12-11T03:56:06.927Z,0.09
2022-12-11T04:00:15.709Z,0.13
2022-12-11T04:03:47.380Z,0.13
2022-12-11T04:07:13.805Z,0.15
2022-12-11T04:11:34.649Z,0.15
2022-12-11T04:15:03.060Z,0.17
2022-12-11T04:19:25.033Z,0.14
2022-12-11T04:23:35.933Z,0.09
2022-12-11T04:27:50.835Z,0.07
2022-12-11T04:31:33.617Z,0.12
2022-12-11T04:35:17.532Z,0.10
2022-12-11T04:39:00.216Z,0.08
2022-12-11T04:42:43.613Z,0.07
2022-12-11T04:46:13.472Z,0.08
2022-12-11T04:49:36.756Z,0.14
2022-12-11T04:52:59.629Z,0.20
2022-12-11T04:57:02.524Z,0.12
2022-12-11T05:00:27.272Z,0.17
2022-12-11T05:04:10.250Z,0.15
2022-12-11T05:07:53.008Z,0.13
2022-12-11T05:11:56.232Z,0.15
2022-12-11T05:15:24.137Z,0.14
2022-12-11T05:19:27.642Z,0.22
2022-12-11T05:23:11.974Z,0.20
2022-12-11T05:26:40.254Z,0.19
2022-12-11T05:30:19.831Z,0.20
2022-12-11T05:34:06.778Z,0.15
2022-12-11T05:37:49.258Z,0.17
2022-12-11T05:41:06.019Z,0.22
2022-12-11T05:44:28.720Z,0.18
2022-12-11T05:47:36.824Z,0.22
2022-12-11T05:51:16.163Z,0.22
2022-12-11T05:55:15.741Z,0.20
2022-12-11T05:58:59.849Z,0.21
2022-12-11T06:02:57.740Z,0.23
2022-12-11T06:07:00.590Z,0.24
2022-12-11T06:10:50.588Z,0.20
2022-12-11T06:14:48.689Z,0.12
2022-12-11T06:18:32.591Z,0.06
2022-12-11T06:22:21.542Z,0.03
2022-12-11T06:25:55.669Z,-0.01
2022-12-11T06:33:24.631Z,-0.04
2022-12-11T06:37:11.101Z,-0.04
2022-12-11T06:40:46.597Z,0.05
2022-12-11T06:44:30.541Z,0.09
2022-12-11T06:48:00.701Z,0.09
2022-12-11T06:51:44.582Z,0.10
2022-12-11T06:54:54.016Z,0.13
2022-12-11T06:58:25.463Z,0.18
2022-12-11T07:01:47.543Z,0.26
2022-12-11T07:24:10.606Z,0.67
2022-12-11T07:27:42.177Z,0.68
2022-12-11T07:30:45.099Z,0.70
2022-12-11T07:33:48.305Z,0.75
2022-12-11T07:36:51.129Z,0.75
2022-12-11T07:39:54.264Z,0.83
2022-12-11T07:42:56.943Z,0.80
2022-12-11T07:46:05.626Z,0.74
2022-12-11T07:49:08.426Z,0.80
2022-12-11T07:52:13.695Z,0.80
2022-12-11T07:55:25.747Z,0.81
2022-12-11T07:58:40.272Z,0.80
2022-12-11T08:01:43.428Z,0.91
2022-12-11T08:04:58.378Z,0.94
2022-12-11T08:08:05.681Z,0.89
2022-12-11T08:11:16.831Z,0.88
2022-12-11T08:14:25.680Z,0.94
2022-12-11T08:17:38.367Z,0.93
2022-12-11T08:20:51.556Z,0.95
2022-12-11T08:23:59.074Z,0.95
2022-12-11T08:27:06.668Z,0.90
2022-12-11T08:30:15.895Z,0.95
2022-12-11T08:33:28.964Z,1.02
2022-12-11T08:36:36.109Z,1.08
2022-12-11T08:39:48.476Z,1.06
2022-12-11T08:43:02.593Z,1.01
2022-12-11T08:46:17.090Z,1.07
2022-12-11T08:49:28.623Z,1.18
2022-12-11T08:52:43.070Z,1.12
2022-12-11T08:55:54.446Z,1.18
2022-12-11T08:59:06.362Z,1.26
2022-12-11T09:02:13.536Z,1.33
2022-12-11T09:05:20.131Z,1.44
2022-12-11T09:08:31.344Z,1.44
2022-12-11T09:11:51.334Z,1.64
2022-12-11T09:14:54.607Z,1.51
2022-12-11T09:18:07.075Z,1.63
2022-12-11T09:21:34.080Z,1.56
2022-12-11T09:24:46.380Z,1.74
2022-12-11T09:27:59.945Z,2.06
2022-12-11T09:31:13.637Z,2.08
2022-12-11T09:34:40.748Z,2.19
2022-12-11T09:38:03.622Z,2.35
2022-12-11T09:41:22.925Z,2.49
2022-12-11T09:44:31.466Z,2.52
2022-12-11T09:47:42.714Z,2.53
2022-12-11T09:50:54.019Z,2.50
2022-12-11T09:54:06.813Z,2.25
2022-12-11T09:57:24.967Z,2.21
2022-12-11T10:01:00.189Z,2.22
2022-12-11T10:04:45.487Z,2.19
2022-12-11T10:08:25.680Z,2.17
2022-12-11T10:11:40.201Z,2.46
2022-12-11T10:15:20.917Z,2.25
2022-12-11T10:18:31.387Z,2.14
2022-12-11T10:21:45.548Z,2.10
2022-12-11T10:25:11.578Z,2.09
2022-12-11T10:28:21.355Z,2.08
2022-12-11T10:31:43.216Z,2.21
2022-12-11T10:35:06.926Z,2.33
2022-12-11T10:39:19.059Z,2.56
2022-12-11T10:42:22.972Z,3.00
2022-12-11T10:45:30.000Z,3.06
2022-12-11T10:48:46.081Z,3.08
2022-12-11T10:52:01.553Z,2.65
2022-12-11T10:55:28.373Z,2.90
2022-12-11T10:58:50.002Z,2.96
2022-12-11T11:01:54.836Z,3.28
2022-12-11T11:05:27.311Z,2.90
2022-12-11T11:08:57.270Z,2.99
2022-12-11T11:12:27.844Z,2.79
2022-12-11T11:16:15.580Z,2.72
2022-12-11T11:19:38.748Z,2.76
2022-12-11T11:22:55.320Z,2.75
2022-12-11T11:26:19.511Z,2.79
2022-12-11T11:30:01.377Z,2.94
2022-12-11T11:33:59.210Z,2.86
2022-12-11T11:37:06.043Z,2.83
2022-12-11T11:40:28.770Z,2.82
2022-12-11T11:43:46.634Z,2.83
2022-12-11T11:47:13.360Z,2.90
2022-12-11T11:50:25.822Z,2.85
2022-12-11T11:53:37.412Z,3.00
2022-12-11T11:56:40.149Z,2.78
2022-12-11T11:59:57.187Z,2.49
2022-12-11T12:03:21.578Z,2.24
2022-12-11T12:06:55.883Z,2.45
2022-12-11T12:10:15.060Z,2.36
2022-12-11T12:13:49.231Z,2.30
2022-12-11T12:17:14.309Z,2.17
2022-12-11T12:20:48.246Z,2.32
2022-12-11T12:24:19.512Z,2.50
2022-12-11T12:27:53.323Z,2.21
2022-12-11T12:31:25.895Z,2.18
2022-12-11T12:34:29.432Z,2.24
2022-12-11T12:38:20.070Z,2.20
2022-12-11T12:41:52.979Z,2.12
2022-12-11T12:45:17.260Z,1.90
2022-12-11T12:49:02.559Z,2.07
2022-12-11T12:52:12.312Z,1.94
2022-12-11T12:55:24.114Z,2.00
2022-12-11T12:59:04.143Z,1.95
2022-12-11T13:13:12.139Z,1.78
2022-12-11T13:24:24.113Z,1.84
2022-12-11T13:27:46.266Z,1.76
2022-12-11T13:31:08.153Z,1.68
2022-12-11T13:34:55.687Z,1.57
2022-12-11T13:38:21.313Z,1.43
2022-12-11T13:41:47.645Z,1.38
2022-12-11T13:45:53.166Z,1.20
2022-12-11T13:49:43.132Z,1.32
2022-12-11T13:53:46.424Z,1.27
2022-12-11T13:57:00.647Z,1.33
2022-12-11T14:00:04.460Z,1.06
2022-12-11T14:03:34.402Z,0.86
2022-12-11T14:06:58.862Z,0.96
2022-12-11T14:10:25.938Z,0.85
2022-12-11T14:13:40.555Z,0.71
2022-12-11T14:17:23.347Z,0.77
2022-12-11T14:20:34.128Z,0.68
2022-12-11T14:24:19.019Z,0.68
2022-12-11T14:27:48.891Z,0.59
2022-12-11T14:30:59.330Z,0.59
2022-12-11T14:34:36.483Z,0.51
2022-12-11T14:49:29.328Z,0.32
2022-12-11T14:53:01.410Z,0.28
2022-12-11T14:56:07.636Z,0.29
2022-12-11T14:59:20.491Z,0.24
2022-12-11T15:02:27.413Z,0.13
2022-12-11T15:05:38.888Z,0.09
2022-12-11T15:24:37.312Z,-0.01
2022-12-11T15:27:45.382Z,-0.07
2022-12-11T15:31:00.371Z,-0.07
2022-12-11T15:34:04.735Z,-0.13
2022-12-11T15:37:31.860Z,-0.12
2022-12-11T15:40:40.086Z,-0.14
2022-12-11T15:43:47.699Z,-0.19
2022-12-11T15:46:54.493Z,-0.20
2022-12-11T15:50:00.885Z,-0.15
2022-12-11T15:53:06.063Z,-0.10
2022-12-11T15:56:15.196Z,-0.23
2022-12-11T15:59:19.162Z,-0.16
2022-12-11T16:02:24.451Z,-0.20
2022-12-11T16:05:27.853Z,-0.14
2022-12-11T16:08:30.901Z,-0.23
2022-12-11T16:11:34.378Z,-0.17
2022-12-11T16:14:39.265Z,-0.22
2022-12-11T16:17:42.380Z,-0.27
2022-12-11T16:28:18.266Z,-0.22
2022-12-11T16:31:22.261Z,-0.14
2022-12-11T16:34:27.163Z,-0.22
2022-12-11T16:37:39.194Z,-0.21
2022-12-11T16:40:42.429Z,-0.36
2022-12-11T16:44:01.173Z,-0.33
2022-12-11T16:47:09.031Z,-0.45
2022-12-11T16:50:16.116Z,-0.49
2022-12-11T16:53:19.012Z,-0.47
2022-12-11T16:56:24.957Z,-0.57
2022-12-11T16:59:37.256Z,-0.56
2022-12-11T17:02:49.302Z,-0.54
2022-12-11T17:05:52.473Z,-0.59
2022-12-11T19:27:13.041Z,-0.60
2022-12-11T19:30:16.641Z,-0.69
2022-12-11T19:33:22.010Z,-0.59
2022-12-11T19:36:26.933Z,-0.67
2022-12-11T19:39:29.762Z,-0.68
2022-12-11T19:42:45.824Z,-0.65
2022-12-11T20:50:34.543Z,-1.31
